Time;durP1;ratioP1;P1;durP2;ratioP2;P2;SDS_P1;SDS_P2;PMS_P1;PMS_P2;Temp;Humidity;BMP_temperature;BMP_pressure;BME280_temperature;BME280_humidity;BME280_pressure;Samples;Min_cycle;Max_cycle;Signal;HPM_P1;HPM_P2
2021/06/25 00:02:14;;;;;;;2.40;0.70;;;16.60;83.90;;;;;;5014778;28;20044;-79
2021/06/25 00:04:39;;;;;;;3.17;0.63;;;16.60;83.80;;;;;;5014874;28;20033;-78
2021/06/25 00:07:05;;;;;;;0.70;0.70;;;16.50;83.80;;;;;;5014582;28;20497;-78
2021/06/25 00:09:31;;;;;;;1.55;0.60;;;16.50;83.90;;;;;;5014584;28;20054;-78
2021/06/25 00:11:56;;;;;;;0.50;0.50;;;16.50;83.80;;;;;;5014616;28;20097;-78
2021/06/25 00:14:23;;;;;;;0.75;0.50;;;16.50;84.00;;;;;;5013158;28;20037;-79
2021/06/25 00:16:50;;;;;;;0.40;0.40;;;16.50;84.20;;;;;;5014810;28;20467;-78
2021/06/25 00:19:16;;;;;;;5.20;0.70;;;16.50;83.80;;;;;;5014500;28;20033;-78
2021/06/25 00:21:42;;;;;;;0.50;0.50;;;16.50;83.30;;;;;;5014605;28;20029;-78
2021/06/25 00:24:07;;;;;;;1.25;0.40;;;16.50;83.30;;;;;;5017416;28;20030;-78
2021/06/25 00:26:33;;;;;;;2.20;0.70;;;16.50;83.50;;;;;;5039308;28;20093;-78
2021/06/25 00:28:58;;;;;;;0.57;0.57;;;16.50;83.20;;;;;;5025925;28;20033;-79
2021/06/25 00:31:24;;;;;;;0.63;0.60;;;16.50;82.90;;;;;;5012943;28;20029;-79
2021/06/25 00:33:49;;;;;;;1.98;0.50;;;16.50;82.90;;;;;;5013811;28;20042;-79
2021/06/25 00:36:15;;;;;;;0.60;0.60;;;16.50;83.00;;;;;;5014156;28;20113;-78
2021/06/25 00:38:41;;;;;;;1.05;0.60;;;16.50;83.20;;;;;;5014072;28;20026;-78
2021/06/25 00:41:06;;;;;;;1.75;0.50;;;16.50;83.70;;;;;;5013769;28;20046;-78
2021/06/25 00:43:32;;;;;;;3.50;0.63;;;16.50;84.10;;;;;;5013962;28;20024;-78
2021/06/25 00:45:57;;;;;;;1.48;0.70;;;16.40;84.20;;;;;;5013984;28;20374;-79
2021/06/25 00:48:23;;;;;;;0.50;0.50;;;16.50;84.60;;;;;;5014028;28;20466;-79
2021/06/25 00:50:48;;;;;;;2.20;0.70;;;16.40;84.60;;;;;;5013827;28;20033;-79
2021/06/25 00:53:14;;;;;;;4.00;0.88;;;16.50;84.90;;;;;;5013700;28;20034;-79
2021/06/25 00:55:43;;;;;;;0.93;0.60;;;16.50;85.00;;;;;;5013834;28;20102;-80
2021/06/25 00:58:14;;;;;;;0.50;0.50;;;16.50;85.00;;;;;;5013674;28;20033;-80
2021/06/25 01:00:40;;;;;;;0.45;0.43;;;16.50;84.90;;;;;;5013711;28;20030;-80
2021/06/25 01:03:06;;;;;;;2.05;0.50;;;16.40;84.60;;;;;;5013730;28;20036;-80
2021/06/25 01:05:31;;;;;;;0.90;0.80;;;16.50;84.80;;;;;;5013614;28;20393;-80
2021/06/25 01:07:57;;;;;;;2.55;0.57;;;16.40;84.70;;;;;;5013641;28;20036;-80
2021/06/25 01:10:24;;;;;;;0.40;0.40;;;16.40;84.60;;;;;;5013538;28;20441;-80
2021/06/25 01:12:51;;;;;;;3.20;0.60;;;16.40;84.50;;;;;;5013491;28;20076;-80
2021/06/25 01:15:16;;;;;;;0.50;0.50;;;16.40;84.60;;;;;;5013438;28;20080;-79
2021/06/25 01:17:43;;;;;;;2.05;0.57;;;16.40;84.50;;;;;;5013559;28;20022;-79
2021/06/25 01:20:10;;;;;;;1.40;0.55;;;16.40;84.50;;;;;;5013493;28;20386;-80
2021/06/25 01:22:41;;;;;;;3.85;0.70;;;16.40;84.60;;;;;;5013512;28;20394;-79
2021/06/25 01:25:17;;;;;;;2.53;0.60;;;16.40;84.60;;;;;;5013192;28;20425;-79
2021/06/25 01:27:45;;;;;;;0.45;0.45;;;16.40;84.10;;;;;;5013455;28;20105;-80
2021/06/25 01:30:17;;;;;;;0.40;0.40;;;16.40;84.20;;;;;;5013188;28;20133;-80
2021/06/25 01:32:43;;;;;;;0.70;0.70;;;16.20;83.00;;;;;;5013127;28;20018;-80
2021/06/25 01:35:11;;;;;;;0.45;0.45;;;16.10;83.10;;;;;;5013060;28;20124;-80
2021/06/25 01:37:37;;;;;;;0.60;0.50;;;16.00;81.80;;;;;;5013135;28;20025;-80
2021/06/25 01:40:05;;;;;;;0.90;0.63;;;16.00;82.00;;;;;;5012990;28;20049;-79
2021/06/25 01:42:33;;;;;;;1.25;0.63;;;16.00;82.20;;;;;;5013071;28;20018;-79
2021/06/25 01:45:02;;;;;;;1.60;0.40;;;15.90;82.40;;;;;;5012434;28;20018;-79
2021/06/25 01:47:27;;;;;;;1.20;0.70;;;15.90;82.60;;;;;;5011552;28;20386;-78
2021/06/25 01:49:53;;;;;;;0.50;0.50;;;15.80;83.00;;;;;;5013024;28;20030;-78
2021/06/25 01:52:19;;;;;;;0.68;0.68;;;15.90;83.20;;;;;;5012846;28;20076;-80
2021/06/25 01:54:46;;;;;;;0.80;0.35;;;15.90;83.30;;;;;;5011484;28;20042;-78
2021/06/25 01:57:12;;;;;;;0.40;0.40;;;16.00;83.20;;;;;;5012852;28;20021;-80
2021/06/25 01:59:38;;;;;;;0.65;0.40;;;16.10;83.00;;;;;;5012953;28;20030;-78
2021/06/25 02:02:04;;;;;;;0.82;0.60;;;16.10;83.00;;;;;;5012650;28;20069;-78
2021/06/25 02:04:29;;;;;;;1.08;0.52;;;16.10;83.20;;;;;;5012913;28;20026;-79
2021/06/25 02:06:55;;;;;;;3.17;0.70;;;16.20;83.60;;;;;;5013042;28;20030;-78
2021/06/25 02:09:21;;;;;;;0.80;0.50;;;16.20;83.90;;;;;;5012639;28;20467;-79
2021/06/25 02:11:46;;;;;;;0.70;0.70;;;16.20;84.20;;;;;;5012685;28;20080;-81
2021/06/25 02:14:12;;;;;;;0.60;0.60;;;16.20;84.20;;;;;;5012832;28;20038;-79
2021/06/25 02:16:37;;;;;;;0.82;0.60;;;16.30;84.30;;;;;;5012580;28;20022;-78
2021/06/25 02:19:03;;;;;;;0.50;0.50;;;16.20;84.40;;;;;;5012753;28;20097;-78
2021/06/25 02:21:29;;;;;;;0.55;0.50;;;16.30;84.40;;;;;;5012665;28;20030;-78
2021/06/25 02:23:55;;;;;;;0.63;0.63;;;16.30;84.10;;;;;;5011387;28;20131;-78
2021/06/25 02:26:21;;;;;;;1.17;0.40;;;16.30;83.00;;;;;;5012593;28;20036;-80
2021/06/25 02:28:47;;;;;;;0.85;0.30;;;16.20;81.10;;;;;;5012568;28;20022;-77
2021/06/25 02:31:13;;;;;;;0.63;0.60;;;16.10;80.70;;;;;;5027457;28;20058;-79
2021/06/25 02:33:38;;;;;;;0.65;0.40;;;16.00;81.40;;;;;;5012488;28;20030;-79
2021/06/25 02:36:05;;;;;;;1.83;0.50;;;15.90;81.50;;;;;;5012367;28;20030;-79
2021/06/25 02:38:31;;;;;;;0.70;0.70;;;15.90;82.00;;;;;;5012464;28;20059;-79
2021/06/25 02:40:56;;;;;;;0.50;0.50;;;15.80;81.50;;;;;;5012371;28;20038;-79
2021/06/25 02:43:22;;;;;;;0.43;0.43;;;15.80;81.60;;;;;;5012302;28;20411;-80
2021/06/25 02:45:48;;;;;;;0.65;0.60;;;15.90;82.20;;;;;;5027617;28;20398;-78
2021/06/25 02:48:14;;;;;;;0.50;0.45;;;15.90;82.40;;;;;;5012358;28;20026;-78
2021/06/25 02:50:40;;;;;;;0.98;0.50;;;15.90;82.50;;;;;;5012358;28;20101;-78
2021/06/25 02:53:05;;;;;;;2.28;0.60;;;16.00;83.40;;;;;;5012284;28;20034;-78
2021/06/25 02:55:31;;;;;;;0.75;0.50;;;16.10;83.30;;;;;;5012859;28;20037;-78
2021/06/25 02:57:57;;;;;;;0.50;0.50;;;16.10;82.70;;;;;;5014935;28;20112;-78
2021/06/25 03:00:22;;;;;;;1.02;0.70;;;16.10;82.40;;;;;;5016043;28;20037;-78
2021/06/25 03:02:48;;;;;;;1.23;0.52;;;16.20;81.90;;;;;;5016113;28;20022;-78
2021/06/25 03:05:15;;;;;;;0.70;0.60;;;16.10;80.30;;;;;;5016048;28;20537;-78
2021/06/25 03:07:41;;;;;;;1.20;0.70;;;16.10;80.40;;;;;;5015973;28;20028;-78
2021/06/25 03:10:08;;;;;;;0.70;0.70;;;16.00;80.40;;;;;;5015959;28;20058;-78
2021/06/25 03:12:34;;;;;;;0.60;0.60;;;15.90;81.20;;;;;;5015862;28;20029;-78
2021/06/25 03:15:00;;;;;;;0.65;0.65;;;15.90;81.20;;;;;;5015689;28;20433;-78
2021/06/25 03:17:26;;;;;;;0.57;0.40;;;15.90;81.10;;;;;;5014529;28;20040;-78
2021/06/25 03:19:51;;;;;;;0.73;0.70;;;15.90;81.40;;;;;;5015948;28;20112;-78
2021/06/25 03:22:18;;;;;;;1.58;0.50;;;16.00;81.60;;;;;;5015820;28;20490;-78
2021/06/25 03:24:44;;;;;;;1.20;0.85;;;16.00;81.40;;;;;;5015766;28;20029;-79
2021/06/25 03:27:09;;;;;;;1.02;0.60;;;16.10;81.30;;;;;;5014413;28;20488;-78
2021/06/25 03:29:35;;;;;;;1.50;0.75;;;16.10;81.40;;;;;;5015790;28;20037;-79
2021/06/25 03:32:01;;;;;;;0.93;0.50;;;16.10;81.90;;;;;;5015683;28;20060;-79
2021/06/25 03:34:27;;;;;;;0.93;0.43;;;16.10;82.40;;;;;;5015577;28;20041;-79
2021/06/25 03:36:53;;;;;;;0.70;0.70;;;16.20;82.80;;;;;;5015618;28;20509;-79
2021/06/25 03:39:19;;;;;;;2.47;0.65;;;16.20;83.30;;;;;;5015398;28;20033;-79
2021/06/25 03:41:44;;;;;;;0.75;0.68;;;16.20;83.30;;;;;;5017433;28;20026;-79
2021/06/25 03:44:10;;;;;;;1.70;1.13;;;16.20;83.70;;;;;;5014230;28;20470;-78
2021/06/25 03:46:35;;;;;;;0.82;0.70;;;16.20;84.10;;;;;;5021507;28;20025;-78
2021/06/25 03:49:01;;;;;;;1.70;0.93;;;16.20;84.80;;;;;;5015912;28;20026;-78
2021/06/25 03:51:26;;;;;;;1.00;0.90;;;16.10;84.80;;;;;;5018373;28;20033;-79
2021/06/25 03:53:52;;;;;;;0.88;0.88;;;16.10;84.60;;;;;;5017540;28;20109;-79
2021/06/25 03:56:18;;;;;;;0.65;0.60;;;16.10;84.50;;;;;;5018407;28;20022;-78
2021/06/25 03:58:49;;;;;;;2.25;0.75;;;16.10;85.50;;;;;;5032232;28;20040;-78
2021/06/25 04:01:17;;;;;;;1.45;1.00;;;16.10;85.10;;;;;;5036568;28;20040;-79
2021/06/25 04:03:43;;;;;;;2.95;0.85;;;16.10;85.30;;;;;;5027288;28;20045;-80
2021/06/25 04:06:09;;;;;;;0.90;0.70;;;16.10;85.20;;;;;;5034272;28;20022;-78
2021/06/25 04:08:35;;;;;;;1.08;0.73;;;16.10;85.20;;;;;;5023681;28;20037;-80
2021/06/25 04:11:04;;;;;;;1.58;0.85;;;16.10;86.30;;;;;;5024701;28;20018;-80
2021/06/25 04:13:30;;;;;;;0.82;0.70;;;16.10;85.60;;;;;;5036642;28;20417;-81
2021/06/25 04:15:56;;;;;;;0.95;0.57;;;16.10;85.60;;;;;;5035805;28;20041;-80
2021/06/25 04:18:23;;;;;;;2.28;0.57;;;16.00;85.50;;;;;;5038217;28;20025;-79
2021/06/25 04:20:50;;;;;;;0.98;0.90;;;16.00;85.80;;;;;;5026520;28;20026;-81
2021/06/25 04:23:16;;;;;;;0.88;0.70;;;16.00;86.20;;;;;;5018702;28;20029;-80
2021/06/25 04:25:42;;;;;;;1.13;0.65;;;16.00;86.20;;;;;;5017399;28;20386;-81
2021/06/25 04:28:08;;;;;;;1.00;0.50;;;15.90;86.20;;;;;;5017497;28;20068;-81
2021/06/25 04:30:35;;;;;;;1.10;0.52;;;16.00;85.60;;;;;;5016385;28;20038;-80
2021/06/25 04:33:02;;;;;;;1.30;0.68;;;16.00;85.50;;;;;;5015446;28;20052;-80
2021/06/25 04:35:29;;;;;;;0.45;0.43;;;16.00;85.40;;;;;;5016430;28;20359;-80
2021/06/25 04:37:55;;;;;;;0.95;0.70;;;16.00;85.60;;;;;;5018246;28;20089;-79
2021/06/25 04:40:21;;;;;;;1.20;0.30;;;16.00;85.80;;;;;;5020315;28;20056;-80
2021/06/25 04:42:46;;;;;;;0.73;0.50;;;16.00;85.90;;;;;;5016265;28;20389;-80
2021/06/25 04:45:13;;;;;;;0.93;0.50;;;16.10;86.20;;;;;;5016132;28;20070;-80
2021/06/25 04:47:40;;;;;;;0.77;0.68;;;16.10;85.90;;;;;;5016231;28;20033;-80
2021/06/25 04:50:06;;;;;;;0.50;0.50;;;16.10;85.90;;;;;;5014496;28;20362;-81
2021/06/25 04:52:32;;;;;;;0.40;0.40;;;16.10;85.80;;;;;;5015755;28;20374;-80
2021/06/25 04:54:58;;;;;;;0.70;0.70;;;16.10;85.40;;;;;;5015097;28;20036;-81
2021/06/25 04:57:23;;;;;;;1.48;0.40;;;16.00;84.40;;;;;;5016185;28;20397;-81
2021/06/25 04:59:49;;;;;;;0.60;0.57;;;16.00;84.20;;;;;;5014953;28;20424;-80
2021/06/25 05:02:14;;;;;;;0.90;0.60;;;16.00;84.60;;;;;;5030481;28;20017;-80
2021/06/25 05:04:40;;;;;;;1.98;0.88;;;16.00;84.70;;;;;;5015880;28;20022;-80
2021/06/25 05:07:06;;;;;;;0.85;0.63;;;16.00;84.50;;;;;;5030684;28;20466;-80
2021/06/25 05:09:31;;;;;;;1.50;0.68;;;16.10;83.70;;;;;;5015911;28;20030;-79
2021/06/25 05:11:57;;;;;;;1.77;0.73;;;15.90;83.60;;;;;;5015232;28;20026;-80
2021/06/25 05:14:23;;;;;;;0.70;0.68;;;15.90;83.50;;;;;;5015478;28;20144;-80
2021/06/25 05:16:48;;;;;;;1.75;0.50;;;15.80;83.50;;;;;;5015152;28;20164;-79
2021/06/25 05:19:14;;;;;;;1.42;1.00;;;15.80;83.30;;;;;;5012913;28;20018;-78
2021/06/25 05:21:39;;;;;;;0.60;0.60;;;15.80;84.00;;;;;;5014828;28;20465;-79
2021/06/25 05:24:05;;;;;;;1.58;0.80;;;15.70;84.30;;;;;;5014495;28;20136;-79
2021/06/25 05:26:31;;;;;;;2.72;0.63;;;15.60;85.40;;;;;;5015436;28;20037;-79
2021/06/25 05:28:56;;;;;;;0.88;0.50;;;15.50;84.70;;;;;;5014790;28;20076;-80
2021/06/25 05:31:22;;;;;;;1.40;0.90;;;15.60;84.80;;;;;;5014414;28;20030;-79
2021/06/25 05:33:48;;;;;;;0.47;0.40;;;15.50;85.50;;;;;;5014485;28;20552;-79
2021/06/25 05:36:13;;;;;;;0.90;0.50;;;15.40;85.90;;;;;;5014655;28;20378;-80
2021/06/25 05:38:39;;;;;;;1.70;0.50;;;15.30;85.80;;;;;;5014590;28;20033;-80
2021/06/25 05:41:05;;;;;;;2.58;0.68;;;15.30;86.00;;;;;;5013241;28;20439;-83
2021/06/25 05:43:30;;;;;;;0.65;0.60;;;15.20;85.50;;;;;;5014838;28;20030;-80
2021/06/25 05:45:56;;;;;;;0.75;0.60;;;15.10;86.80;;;;;;5013915;28;20486;-79
2021/06/25 05:48:22;;;;;;;1.15;1.05;;;15.10;86.90;;;;;;5012550;28;20470;-79
2021/06/25 05:50:48;;;;;;;5.18;1.40;;;15.00;86.70;;;;;;5013938;28;20425;-78
2021/06/25 05:53:14;;;;;;;2.45;1.20;;;15.00;87.10;;;;;;5012255;28;20109;-78
2021/06/25 05:55:42;;;;;;;3.67;1.63;;;14.90;88.30;;;;;;5013744;28;20386;-78
2021/06/25 05:58:08;;;;;;;2.33;1.27;;;14.90;87.80;;;;;;5015711;28;20014;-78
2021/06/25 06:00:33;;;;;;;1.42;1.33;;;14.90;88.90;;;;;;5020057;28;20030;-80
2021/06/25 06:02:59;;;;;;;2.05;1.27;;;15.00;88.50;;;;;;5020807;28;20044;-78
2021/06/25 06:05:25;;;;;;;2.22;1.67;;;14.90;88.80;;;;;;5020075;28;20025;-79
2021/06/25 06:07:50;;;;;;;1.38;1.27;;;14.90;89.30;;;;;;5019822;28;20048;-79
2021/06/25 06:10:17;;;;;;;2.05;1.48;;;14.90;88.40;;;;;;5020311;28;20038;-79
2021/06/25 06:12:43;;;;;;;2.13;1.50;;;14.90;88.60;;;;;;5020193;28;20025;-79
2021/06/25 06:15:09;;;;;;;4.03;1.17;;;14.90;89.00;;;;;;5014342;28;20026;-80
2021/06/25 06:17:39;;;;;;;1.58;1.40;;;15.00;88.40;;;;;;5011919;28;20327;-80
2021/06/25 06:20:06;;;;;;;0.70;0.70;;;15.00;88.40;;;;;;5013070;28;20026;-80
2021/06/25 06:36:35;;;;;;;3.67;2.63;;;15.00;88.50;;;;;;5016921;28;20022;-78
2021/06/25 06:39:03;;;;;;;4.88;2.88;;;14.90;89.00;;;;;;5015755;28;20033;-78
2021/06/25 06:41:30;;;;;;;3.58;2.90;;;14.70;89.70;;;;;;5016580;28;20119;-80
2021/06/25 06:43:57;;;;;;;4.45;2.90;;;14.70;90.70;;;;;;5016936;28;20070;-79
2021/06/25 06:46:23;;;;;;;2.80;2.33;;;14.70;90.60;;;;;;5016728;28;20045;-80
2021/06/25 06:48:49;;;;;;;2.72;2.53;;;14.60;90.50;;;;;;5015369;28;20057;-81
2021/06/25 06:51:15;;;;;;;3.50;2.60;;;14.60;89.90;;;;;;5015195;28;20026;-80
2021/06/25 06:53:43;;;;;;;3.00;2.60;;;14.70;90.10;;;;;;5016412;28;20037;-80
2021/06/25 06:56:29;;;;;;;3.88;2.70;;;14.70;89.50;;;;;;5016285;28;20022;-81
2021/06/25 06:58:56;;;;;;;4.47;2.97;;;14.80;88.90;;;;;;5016125;28;20034;-79
2021/06/25 07:01:23;;;;;;;2.47;2.25;;;14.80;89.30;;;;;;5016638;28;20520;-80
2021/06/25 07:03:48;;;;;;;2.42;2.22;;;14.90;88.20;;;;;;5014785;28;20022;-80
2021/06/25 07:06:15;;;;;;;2.60;2.35;;;14.90;88.90;;;;;;5030913;28;20077;-80
2021/06/25 07:08:41;;;;;;;3.08;2.50;;;15.00;88.00;;;;;;5016185;28;20057;-80
2021/06/25 07:11:07;;;;;;;3.85;2.42;;;15.00;89.10;;;;;;5016016;28;20025;-79
2021/06/25 07:13:33;;;;;;;2.72;2.25;;;15.00;87.60;;;;;;5016176;28;20030;-81
2021/06/25 07:15:59;;;;;;;2.40;2.20;;;15.00;88.30;;;;;;5014830;28;20112;-81
2021/06/25 07:18:25;;;;;;;4.13;2.20;;;15.10;86.30;;;;;;5015936;28;20053;-79
2021/06/25 07:20:51;;;;;;;3.47;2.50;;;15.20;86.40;;;;;;5016069;28;20382;-81
2021/06/25 07:23:17;;;;;;;3.30;2.63;;;15.30;86.30;;;;;;5015856;28;20038;-80
2021/06/25 07:25:43;;;;;;;3.13;2.83;;;15.30;84.70;;;;;;5020019;28;20086;-81
2021/06/25 07:28:08;;;;;;;3.65;2.67;;;15.40;84.80;;;;;;5024173;28;20076;-82
2021/06/25 07:30:34;;;;;;;2.70;2.20;;;15.40;85.40;;;;;;5017843;28;20113;-81
2021/06/25 07:33:00;;;;;;;2.90;2.60;;;15.50;84.10;;;;;;5015768;28;20101;-80
2021/06/25 07:35:26;;;;;;;3.17;2.38;;;15.60;83.90;;;;;;5015761;28;20101;-80
2021/06/25 07:37:51;;;;;;;3.65;2.83;;;15.60;84.30;;;;;;5016326;28;20152;-80
2021/06/25 07:40:17;;;;;;;5.13;2.72;;;15.60;84.20;;;;;;5014594;28;20073;-80
2021/06/25 07:42:43;;;;;;;2.80;2.60;;;15.60;84.70;;;;;;5014284;28;20026;-79
2021/06/25 07:45:10;;;;;;;3.53;2.75;;;15.50;84.00;;;;;;5015072;28;20030;-81
2021/06/25 07:47:37;;;;;;;5.72;3.40;;;15.60;84.30;;;;;;5015468;28;20049;-80
2021/06/25 07:50:05;;;;;;;3.88;3.42;;;15.50;83.50;;;;;;5015296;28;20099;-81
2021/06/25 07:52:31;;;;;;;4.68;2.80;;;15.50;84.10;;;;;;5015593;28;20033;-81
2021/06/25 07:54:56;;;;;;;3.78;3.38;;;15.60;84.20;;;;;;5015000;28;20042;-79
2021/06/25 07:57:22;;;;;;;4.25;3.38;;;15.60;83.10;;;;;;5030373;28;20026;-79
2021/06/25 07:59:47;;;;;;;8.40;3.30;;;15.80;82.20;;;;;;5016119;28;20028;-89
2021/06/25 08:02:13;;;;;;;6.07;4.03;;;15.90;84.00;;;;;;5016785;28;20028;-90
2021/06/25 08:04:44;;;;;;;4.97;3.42;;;16.10;83.40;;;;;;5016536;28;20032;-88
2021/06/25 08:07:10;;;;;;;4.72;3.15;;;16.30;81.70;;;;;;5017005;28;20128;-91
2021/06/25 08:09:36;;;;;;;4.93;3.38;;;16.50;80.80;;;;;;5016125;28;20090;-90
2021/06/25 08:12:01;;;;;;;5.57;2.88;;;16.70;79.30;;;;;;5017419;28;20029;-88
2021/06/25 08:14:27;;;;;;;6.57;2.85;;;16.80;78.40;;;;;;5016769;28;20041;-88
2021/06/25 08:16:52;;;;;;;3.83;2.42;;;16.90;77.00;;;;;;5017101;28;20029;-83
2021/06/25 08:19:18;;;;;;;3.30;2.53;;;16.90;77.80;;;;;;5015388;28;20048;-87
2021/06/25 08:21:43;;;;;;;2.63;2.42;;;17.10;76.80;;;;;;5016594;28;20101;-87
2021/06/25 08:24:09;;;;;;;2.50;2.30;;;17.20;76.40;;;;;;5016181;28;20485;-87
2021/06/25 08:26:35;;;;;;;6.07;3.45;;;17.20;76.10;;;;;;5015945;28;20055;-88
2021/06/25 08:29:00;;;;;;;6.22;3.85;;;17.20;75.60;;;;;;5016392;28;20026;-87
2021/06/25 08:31:26;;;;;;;4.35;3.95;;;17.20;75.40;;;;;;5016239;28;20418;-88
2021/06/25 08:33:51;;;;;;;3.30;2.97;;;17.10;74.90;;;;;;5016321;28;20022;-88
2021/06/25 08:36:17;;;;;;;4.97;3.70;;;17.20;75.20;;;;;;5016323;28;20080;-88
2021/06/25 08:38:42;;;;;;;3.42;2.97;;;17.20;75.20;;;;;;5016148;28;20105;-89
2021/06/25 08:41:08;;;;;;;5.25;3.45;;;17.30;75.10;;;;;;5018127;28;20443;-83
2021/06/25 08:43:34;;;;;;;6.00;4.32;;;17.40;74.90;;;;;;5019727;28;20018;-88
2021/06/25 08:46:00;;;;;;;4.00;3.60;;;17.50;73.80;;;;;;5015039;28;20052;-88
2021/06/25 08:48:27;;;;;;;4.13;3.30;;;17.50;75.20;;;;;;5015115;28;20029;-87
2021/06/25 08:50:56;;;;;;;4.88;3.60;;;17.50;74.50;;;;;;5015232;28;20105;-88
2021/06/25 08:53:22;;;;;;;4.80;3.47;;;17.60;73.10;;;;;;5015109;28;20022;-87
2021/06/25 08:55:48;;;;;;;5.07;3.95;;;17.60;74.00;;;;;;5015945;28;20018;-90
2021/06/25 08:58:18;;;;;;;4.07;3.40;;;17.80;73.40;;;;;;5015938;28;20076;-90
2021/06/25 09:00:44;;;;;;;5.45;3.35;;;17.80;72.30;;;;;;5016098;28;20030;-88
2021/06/25 09:03:24;;;;;;;5.55;4.30;;;17.80;72.30;;;;;;5015529;28;20048;-88
2021/06/25 09:05:51;;;;;;;6.38;4.57;;;17.70;72.50;;;;;;5017480;28;20497;-87
2021/06/25 09:08:25;;;;;;;5.75;4.80;;;17.60;73.60;;;;;;5016238;28;20030;-86
2021/06/25 09:10:53;;;;;;;6.20;4.35;;;17.50;74.20;;;;;;5018178;28;20033;-91
2021/06/25 09:13:28;;;;;;;4.55;4.15;;;17.60;73.50;;;;;;5014854;28;20083;-87
2021/06/25 09:15:54;;;;;;;;;;;17.70;73.40;;;;;;5014824;28;20070;-89
2021/06/25 09:18:20;;;;;;;;;;;17.70;73.70;;;;;;5016043;28;19912;-86
2021/06/25 09:20:50;;;;;;;4.30;3.90;;;17.60;72.70;;;;;;5015798;28;19909;-85
2021/06/25 09:23:21;;;;;;;6.43;4.65;;;17.70;72.90;;;;;;5015105;28;20018;-86
2021/06/25 09:26:06;;;;;;;7.65;5.25;;;17.60;73.10;;;;;;5015555;28;20540;-88
2021/06/25 09:28:37;;;;;;;7.72;4.70;;;17.60;72.00;;;;;;5014954;28;20104;-87
2021/06/25 09:31:17;;;;;;;9.02;5.47;;;17.40;73.70;;;;;;5014605;28;20030;-85
2021/06/25 09:33:57;;;;;;;7.75;5.50;;;17.30;73.80;;;;;;5014618;28;20041;-87
2021/06/25 09:36:27;;;;;;;9.30;5.90;;;17.10;74.50;;;;;;5014572;28;20034;-86
2021/06/25 09:38:57;;;;;;;7.65;6.07;;;17.20;74.00;;;;;;5013987;28;20022;-88
2021/06/25 09:41:22;;;;;;;8.18;6.55;;;17.30;73.70;;;;;;5014560;28;20045;-82
2021/06/25 09:44:08;;;;;;;7.80;6.10;;;17.10;74.30;;;;;;5015447;28;20165;-89
2021/06/25 09:46:41;;;;;;;10.02;6.63;;;16.80;75.90;;;;;;5018952;28;20037;-85
2021/06/25 09:49:15;;;;;;;13.65;7.68;;;16.90;76.40;;;;;;5020323;28;20022;-88
2021/06/25 09:51:59;;;;;;;8.13;7.03;;;16.90;76.10;;;;;;5016808;28;20087;-88
2021/06/25 09:54:26;;;;;;;8.13;6.82;;;16.70;76.90;;;;;;5014880;28;20113;-89
2021/06/25 09:59:39;;;;;;;9.18;7.15;;;16.70;76.00;;;;;;5015204;28;20033;-88
2021/06/25 10:02:26;;;;;;;11.57;7.03;;;16.90;75.50;;;;;;5013138;28;20390;-88
2021/06/25 10:04:59;;;;;;;9.65;7.40;;;16.50;76.50;;;;;;5013917;28;20045;-84
2021/06/25 10:07:26;;;;;;;12.02;8.55;;;16.60;76.50;;;;;;5019358;28;20060;-87
2021/06/25 10:09:54;;;;;;;11.05;8.00;;;16.40;76.50;;;;;;5019350;28;20105;-85
2021/06/25 10:12:22;;;;;;;12.75;9.45;;;16.40;77.40;;;;;;5017053;28;20502;-89
2021/06/25 10:14:49;;;;;;;11.15;8.40;;;16.40;77.10;;;;;;5025695;28;20065;-86
2021/06/25 10:17:15;;;;;;;12.50;8.57;;;16.40;76.80;;;;;;5048789;28;20025;-87
2021/06/25 10:19:44;;;;;;;13.32;8.95;;;16.50;75.80;;;;;;5013459;28;20025;-82
2021/06/25 10:22:11;;;;;;;16.48;10.23;;;16.50;76.30;;;;;;5012340;28;20026;-80
2021/06/25 10:24:38;;;;;;;15.55;8.90;;;16.30;76.60;;;;;;5012396;28;20036;-81
2021/06/25 10:27:06;;;;;;;12.18;8.85;;;16.40;76.30;;;;;;5012054;28;20025;-80
2021/06/25 10:29:33;;;;;;;13.80;9.18;;;16.70;76.10;;;;;;5012821;28;20025;-80
2021/06/25 10:32:00;;;;;;;11.05;8.32;;;16.80;75.60;;;;;;5012210;28;20033;-80
2021/06/25 10:34:27;;;;;;;9.68;7.95;;;17.00;74.10;;;;;;5012195;28;20133;-80
2021/06/25 10:36:52;;;;;;;13.30;9.40;;;17.20;75.00;;;;;;5012232;28;20022;-80
2021/06/25 10:39:18;;;;;;;11.10;8.13;;;17.60;71.60;;;;;;5011884;28;20470;-80
2021/06/25 10:41:52;;;;;;;10.75;8.60;;;17.70;70.80;;;;;;5011888;28;20026;-78
2021/06/25 10:44:54;;;;;;;15.27;9.15;;;17.80;70.10;;;;;;5011729;28;20105;-79
2021/06/25 10:47:27;;;;;;;13.20;8.48;;;17.40;71.60;;;;;;5012267;28;20020;-80
2021/06/25 10:49:59;;;;;;;12.43;7.18;;;17.80;72.00;;;;;;5012044;28;20049;-79
2021/06/25 10:52:37;;;;;;;7.57;6.45;;;18.10;71.00;;;;;;5011957;28;20439;-80
2021/06/25 10:55:03;;;;;;;8.50;6.78;;;18.50;66.80;;;;;;5011740;28;20398;-79
2021/06/25 10:57:30;;;;;;;8.57;6.90;;;19.00;65.70;;;;;;5012000;28;20018;-80
2021/06/25 10:59:56;;;;;;;10.05;7.07;;;19.00;65.50;;;;;;5012136;28;20036;-80
2021/06/25 11:02:42;;;;;;;8.48;5.57;;;18.90;65.10;;;;;;5011810;28;20097;-80
2021/06/25 11:05:26;;;;;;;9.05;6.78;;;19.10;65.50;;;;;;5012471;28;20486;-80
2021/06/25 11:07:56;;;;;;;8.35;6.40;;;18.90;66.20;;;;;;5012403;28;20034;-80
2021/06/25 11:10:23;;;;;;;10.10;5.85;;;19.00;65.80;;;;;;5012271;28;20084;-80
2021/06/25 11:12:50;;;;;;;8.15;6.03;;;19.20;66.60;;;;;;5012103;28;20101;-81
2021/06/25 11:15:17;;;;;;;9.95;4.97;;;19.40;64.40;;;;;;5012079;28;20092;-84
2021/06/25 11:17:53;;;;;;;8.38;5.57;;;19.60;64.10;;;;;;5014354;28;20017;-83
2021/06/25 11:20:31;;;;;;;8.80;5.75;;;19.90;63.50;;;;;;5016196;28;20401;-83
2021/06/25 11:23:15;;;;;;;6.63;4.70;;;19.90;62.00;;;;;;5015581;28;20501;-83
2021/06/25 11:25:46;;;;;;;8.35;4.68;;;19.90;61.20;;;;;;5015669;28;20037;-81
2021/06/25 11:28:29;;;;;;;5.72;4.40;;;20.20;60.40;;;;;;5015459;28;20025;-81
2021/06/25 11:31:18;;;;;;;5.40;4.35;;;20.40;60.10;;;;;;5015200;28;20053;-80
2021/06/25 11:36:38;;;;;;;5.88;4.72;;;20.50;60.00;;;;;;5015465;28;20037;-80
2021/06/25 11:39:30;;;;;;;6.13;4.15;;;20.40;60.30;;;;;;5015205;28;20065;-80
2021/06/25 11:42:02;;;;;;;8.00;5.18;;;20.30;60.70;;;;;;4976455;28;20047;-80
2021/06/25 11:44:40;;;;;;;6.13;5.53;;;20.40;60.00;;;;;;4976460;28;20051;-81
2021/06/25 11:47:16;;;;;;;8.20;5.03;;;20.70;60.10;;;;;;4975749;28;20114;-80
2021/06/25 11:49:58;;;;;;;7.35;5.40;;;20.50;60.70;;;;;;4976205;28;20029;-79
2021/06/25 11:52:33;;;;;;;5.97;4.20;;;20.70;59.90;;;;;;4975038;28;20378;-79
2021/06/25 11:55:08;;;;;;;6.18;4.82;;;21.00;60.00;;;;;;4975556;28;20035;-81
2021/06/25 11:57:36;;;;;;;6.38;5.40;;;21.10;59.20;;;;;;4975696;28;20376;-78
2021/06/25 12:00:08;;;;;;;6.13;5.25;;;21.10;59.00;;;;;;4975375;28;20055;-78
2021/06/25 12:02:43;;;;;;;6.13;4.25;;;21.20;59.30;;;;;;4975796;28;20023;-78
2021/06/25 12:05:10;;;;;;;8.70;6.18;;;21.50;58.30;;;;;;4972230;28;20484;-79
2021/06/25 12:07:36;;;;;;;4.85;4.20;;;21.70;57.30;;;;;;4985759;28;20407;-79
2021/06/25 12:10:03;;;;;;;8.30;5.57;;;22.20;57.70;;;;;;4973855;28;20026;-79
2021/06/25 12:12:35;;;;;;;4.78;4.28;;;22.40;55.60;;;;;;4964599;28;20114;-79
2021/06/25 12:15:12;;;;;;;5.75;4.40;;;22.10;55.80;;;;;;4955902;28;20388;-79
2021/06/25 12:17:48;;;;;;;5.60;4.40;;;22.40;55.00;;;;;;4956483;28;20030;-81
2021/06/25 12:20:18;;;;;;;3.90;3.50;;;22.70;55.30;;;;;;4956604;28;20038;-80
2021/06/25 12:22:57;;;;;;;5.05;4.55;;;22.80;55.00;;;;;;4956456;28;20046;-80
2021/06/25 12:25:41;;;;;;;6.00;4.47;;;22.90;54.40;;;;;;4963115;28;20023;-80
2021/06/25 12:28:16;;;;;;;6.18;5.57;;;23.20;54.20;;;;;;4974523;28;20519;-79
2021/06/25 12:30:55;;;;;;;6.60;4.45;;;22.80;53.00;;;;;;4975375;28;20459;-80
2021/06/25 12:33:34;;;;;;;6.60;4.28;;;22.70;54.00;;;;;;4975307;28;20023;-81
2021/06/25 12:36:01;;;;;;;8.50;5.47;;;22.90;53.90;;;;;;4974092;28;20042;-80
2021/06/25 12:38:28;;;;;;;8.23;5.15;;;22.80;53.80;;;;;;4975430;28;20018;-79
2021/06/25 12:40:59;;;;;;;6.07;4.07;;;23.10;54.10;;;;;;4988618;28;20049;-80
2021/06/25 12:43:30;;;;;;;6.47;5.55;;;23.60;52.80;;;;;;4994722;28;20101;-81
2021/06/25 12:46:13;;;;;;;5.65;5.03;;;23.20;52.40;;;;;;4994779;28;20033;-79
2021/06/25 12:48:46;;;;;;;5.80;4.65;;;23.20;53.10;;;;;;4994757;28;20030;-80
2021/06/25 12:51:18;;;;;;;8.30;5.38;;;23.10;54.30;;;;;;4994685;28;20027;-79
2021/06/25 12:53:54;;;;;;;7.50;5.10;;;23.00;52.60;;;;;;4994444;28;20026;-80
2021/06/25 12:56:23;;;;;;;5.90;3.78;;;23.00;53.70;;;;;;4994283;28;20502;-80
2021/06/25 12:58:55;;;;;;;5.32;4.72;;;22.90;53.90;;;;;;5009997;28;20363;-80
2021/06/25 13:01:21;;;;;;;7.80;5.30;;;22.70;54.80;;;;;;4995046;28;20026;-80
2021/06/25 13:03:47;;;;;;;6.82;5.10;;;22.30;55.60;;;;;;4993439;28;20073;-81
2021/06/25 13:06:34;;;;;;;9.77;6.07;;;22.10;57.10;;;;;;4994454;28;20030;-80
2021/06/25 13:09:03;;;;;;;7.97;5.18;;;21.60;57.80;;;;;;4994159;28;20026;-80
2021/06/25 13:11:33;;;;;;;6.25;5.65;;;21.60;57.50;;;;;;4994434;28;20027;-80